< < Back
Terminal Aerodrome Forecast


Current Version              Previous Versions:   1  2  3  4  5  6  7  8  9  

Terminal Aerodrome Forecast

019
FTUS42 KGSP 220500
TAFAND
TAF
KAND 220522Z 2206/2306 34005KT P6SM BKN090
     FM220900 35006KT P6SM SCT080
     FM221400 03009KT P6SM SCT060
     FM230000 05005KT P6SM SCT250=



Latest METAR

152
SAUS70 KWBC 220800 RRD
MTRAND
METAR KAND 220756Z AUTO 27003KT 10SM OVC100 22/19 A2994 RMK AO2 SLP129
T02170194


USA.gov is the U.S. government's official web portal to all federal, state and local government web resources and services.